Time;durP1;ratioP1;P1;durP2;ratioP2;P2;SDS_P1;SDS_P2;PMS_P1;PMS_P2;Temp;Humidity;BMP_temperature;BMP_pressure;BME280_temperature;BME280_humidity;BME280_pressure;Samples;Min_cycle;Max_cycle;Signal;HPM_P1;HPM_P2
2021/01/22 00:01:37;;;;;;;2.47;1.10;;;;;;;5.81;100.00;98564.63;4998342;28;20045;-72
2021/01/22 00:04:04;;;;;;;2.07;1.10;;;;;;;5.78;100.00;98557.69;4976455;28;20042;-72
2021/01/22 00:06:30;;;;;;;2.30;1.23;;;;;;;5.74;100.00;98544.78;4992461;28;20097;-72
2021/01/22 00:08:56;;;;;;;2.80;1.23;;;;;;;5.70;100.00;98536.16;4996174;28;20056;-72
2021/01/22 00:11:22;;;;;;;2.20;1.50;;;;;;;5.73;100.00;98540.47;4997563;28;20058;-72
2021/01/22 00:13:48;;;;;;;1.40;1.10;;;;;;;5.69;100.00;98523.97;4996706;28;20041;-72
2021/01/22 00:16:14;;;;;;;2.70;1.20;;;;;;;5.82;100.00;98524.41;4996438;28;20041;-72
2021/01/22 00:18:41;;;;;;;3.07;1.20;;;;;;;5.75;100.00;98521.16;4994437;28;20033;-72
2021/01/22 00:21:07;;;;;;;1.60;1.30;;;;;;;5.68;100.00;98509.16;4983775;28;20038;-72
2021/01/22 00:23:37;;;;;;;2.13;1.57;;;;;;;5.70;100.00;98488.16;4978420;28;20039;-73
2021/01/22 00:26:04;;;;;;;2.53;1.43;;;;;;;5.64;100.00;98487.47;4977219;28;20418;-72
2021/01/22 00:28:31;;;;;;;3.53;1.50;;;;;;;5.64;100.00;98487.47;4985868;28;20112;-72
2021/01/22 00:30:57;;;;;;;3.83;2.23;;;;;;;5.68;100.00;98492.59;5003071;28;20080;-72
2021/01/22 00:33:23;;;;;;;1.93;1.57;;;;;;;5.65;100.00;98491.78;5001567;28;20538;-73
2021/01/22 00:35:50;;;;;;;2.67;1.77;;;;;;;5.70;100.00;98485.53;4989903;28;20176;-73
2021/01/22 00:38:16;;;;;;;2.93;2.17;;;;;;;5.65;100.00;98483.09;4993269;28;20179;-72
2021/01/22 00:40:43;;;;;;;3.03;1.97;;;;;;;5.64;100.00;98479.63;5043461;23;20042;31
2021/01/22 00:43:09;;;;;;;4.50;2.13;;;;;;;5.65;100.00;98462.97;4999332;28;20125;-71
2021/01/22 00:45:35;;;;;;;3.87;2.33;;;;;;;5.62;100.00;98464.84;4978676;28;20046;-71
2021/01/22 00:48:01;;;;;;;3.53;2.40;;;;;;;5.61;100.00;98439.56;4988211;28;20065;-71
2021/01/22 00:50:27;;;;;;;3.67;2.37;;;;;;;5.62;100.00;98444.72;4988105;28;20030;-71
2021/01/22 00:52:53;;;;;;;4.57;2.70;;;;;;;5.64;100.00;98434.22;5006511;28;20077;-71
2021/01/22 00:55:19;;;;;;;3.93;2.50;;;;;;;5.60;100.00;98436.09;5005609;28;20034;-71
2021/01/22 00:57:46;;;;;;;3.50;2.53;;;;;;;5.70;100.00;98420.88;5005397;28;20556;-71
2021/01/22 01:00:13;;;;;;;4.30;2.73;;;;;;;5.68;100.00;98420.09;4989345;28;20042;-70
2021/01/22 01:02:39;;;;;;;4.83;2.53;;;;;;;5.71;100.00;98419.97;4987279;28;20040;-69
2021/01/22 01:05:06;;;;;;;4.03;2.70;;;;;;;5.64;100.00;98421.97;4988211;28;20515;-71
2021/01/22 01:07:35;;;;;;;4.20;2.60;;;;;;;5.69;100.00;98415.72;4988988;28;20073;-71
2021/01/22 01:10:06;;;;;;;4.67;2.87;;;;;;;5.62;100.00;98389.72;4981750;28;20042;-70
2021/01/22 01:12:33;;;;;;;4.87;3.17;;;;;;;5.60;100.00;98388.94;4987374;28;20104;-71
2021/01/22 01:14:59;;;;;;;4.37;2.90;;;;;;;5.68;100.00;98385.19;4988471;28;20037;-70
2021/01/22 01:17:27;;;;;;;5.20;3.17;;;;;;;5.72;100.00;98379.78;5005765;28;20136;-70
2021/01/22 01:19:53;;;;;;;5.97;3.40;;;;;;;5.70;100.00;98380.72;5004197;28;20046;-71
2021/01/22 01:22:19;;;;;;;6.33;3.17;;;;;;;5.71;100.00;98385.06;5005403;28;20033;-70
2021/01/22 01:24:45;;;;;;;4.73;2.97;;;;;;;5.79;100.00;98391.72;4975291;28;20049;-70
2021/01/22 01:27:11;;;;;;;6.63;3.47;;;;;;;5.84;100.00;98378.47;5004665;28;20439;-71
2021/01/22 01:29:37;;;;;;;4.97;3.07;;;;;;;5.83;100.00;98358.41;4987234;28;20058;-71
2021/01/22 01:32:03;;;;;;;7.13;3.37;;;;;;;5.82;100.00;98375.91;5005885;28;20069;-71
2021/01/22 01:34:30;;;;;;;6.63;3.67;;;;;;;5.90;100.00;98370.38;5004780;28;20533;-69
2021/01/22 01:36:56;;;;;;;4.83;3.10;;;;;;;5.95;100.00;98359.72;5005348;28;20041;-69
2021/01/22 01:39:22;;;;;;;5.17;3.60;;;;;;;5.97;100.00;98364.03;4987963;28;20725;-70
2021/01/22 01:41:49;;;;;;;7.13;3.67;;;;;;;6.03;100.00;98362.91;5004443;28;20045;-71
2021/01/22 01:44:15;;;;;;;6.47;3.60;;;;;;;5.97;100.00;98368.38;5005301;28;20088;-70
2021/01/22 01:46:41;;;;;;;4.43;3.03;;;;;;;6.05;100.00;98366.31;4988031;28;20038;-71
2021/01/22 01:49:07;;;;;;;5.27;3.13;;;;;;;6.10;100.00;98346.88;4997390;28;20046;-70
2021/01/22 01:51:33;;;;;;;4.07;2.80;;;;;;;6.05;100.00;98348.81;4987821;28;20395;-71
2021/01/22 01:53:59;;;;;;;5.60;2.97;;;;;;;6.08;100.00;98335.63;4988119;28;20034;-71
2021/01/22 01:56:27;;;;;;;4.20;3.00;;;;;;;6.06;100.00;98332.22;4990556;28;20132;-71
2021/01/22 01:58:53;;;;;;;5.23;3.37;;;;;;;6.11;100.00;98339.88;4982471;28;20034;-70
2021/01/22 02:01:20;;;;;;;5.23;2.90;;;;;;;6.15;100.00;98338.84;4987779;28;20061;-70
2021/01/22 02:03:46;;;;;;;4.33;3.27;;;;;;;6.13;100.00;98330.19;4988689;28;20042;-71
2021/01/22 02:06:13;;;;;;;4.53;2.70;;;;;;;6.15;100.00;98338.84;5004298;28;20042;-69
2021/01/22 02:08:40;;;;;;;5.80;3.10;;;;;;;6.28;100.00;98331.34;5006205;28;20045;-70
2021/01/22 02:11:10;;;;;;;4.67;2.40;;;;;;;6.35;100.00;98330.19;4984073;28;20038;-71
2021/01/22 02:13:38;;;;;;;5.47;2.57;;;;;;;6.45;100.00;98329.72;4991610;28;20073;-71
2021/01/22 02:16:04;;;;;;;4.03;2.67;;;;;;;6.46;100.00;98323.56;4979491;28;20049;-69
2021/01/22 02:18:31;;;;;;;3.77;2.50;;;;;;;6.58;100.00;98321.38;4995663;28;20048;-70
2021/01/22 02:21:21;;;;;;;4.47;2.03;;;;;;;6.68;99.61;98322.69;4992360;28;20037;-70
2021/01/22 02:23:49;;;;;;;3.40;1.93;;;;;;;6.68;99.55;98326.16;5007601;28;20445;-70
2021/01/22 02:26:21;;;;;;;3.50;1.90;;;;;;;6.71;99.54;98312.91;5008010;28;20042;-70
2021/01/22 02:28:52;;;;;;;2.57;2.10;;;;;;;6.70;99.45;98302.47;4990401;28;20097;-69
2021/01/22 02:31:19;;;;;;;4.07;2.33;;;;;;;6.74;99.17;98298.81;4981912;28;20040;-70
2021/01/22 02:33:46;;;;;;;3.50;2.17;;;;;;;6.69;99.72;98300.78;4999991;28;20038;-70
2021/01/22 02:36:13;;;;;;;4.23;2.20;;;;;;;6.73;99.43;98291.88;4984335;28;20059;-70
2021/01/22 02:38:40;;;;;;;4.10;1.93;;;;;;;6.77;98.38;98286.41;4992936;28;21669;-70
2021/01/22 02:41:07;;;;;;;3.40;1.70;;;;;;;6.83;98.36;98284.47;4990525;28;20038;-70
2021/01/22 02:43:34;;;;;;;2.90;1.80;;;;;;;6.97;97.08;98264.53;4976576;28;20045;-69
2021/01/22 02:46:01;;;;;;;2.50;1.70;;;;;;;6.99;97.03;98262.72;5007183;28;20049;-70
2021/01/22 02:48:27;;;;;;;2.23;1.60;;;;;;;6.94;97.22;98269.09;4967652;28;20491;-70
2021/01/22 02:50:53;;;;;;;2.57;1.50;;;;;;;6.94;96.87;98258.59;4991155;28;20046;-70
2021/01/22 02:53:20;;;;;;;2.27;1.50;;;;;;;6.99;96.89;98256.63;5008761;28;20494;-70
2021/01/22 02:55:46;;;;;;;2.30;1.60;;;;;;;7.17;94.99;98239.19;4991064;28;20038;-69
2021/01/22 02:58:17;;;;;;;1.77;1.37;;;;;;;7.21;94.42;98256.50;5005521;28;20042;-70
2021/01/22 03:00:46;;;;;;;1.87;1.27;;;;;;;7.29;94.01;98244.72;4974785;28;20115;-70
2021/01/22 03:03:32;;;;;;;1.40;1.10;;;;;;;7.34;93.48;98247.16;4962406;28;20042;-69
2021/01/22 03:05:59;;;;;;;1.77;1.20;;;;;;;7.36;93.11;98247.06;4987930;28;20048;-69
2021/01/22 03:08:26;;;;;;;1.37;0.90;;;;;;;7.43;92.10;98241.47;4990800;28;20049;-69
2021/01/22 03:10:53;;;;;;;1.47;1.33;;;;;;;7.53;91.41;98236.63;5008481;28;20037;-69
2021/01/22 03:13:19;;;;;;;2.67;1.00;;;;;;;7.62;90.32;98234.41;4965105;28;20073;-68
2021/01/22 03:15:46;;;;;;;2.27;1.17;;;;;;;7.65;90.18;98238.69;4991236;28;20068;-69
2021/01/22 03:18:13;;;;;;;1.80;1.20;;;;;;;7.56;90.62;98225.97;5011813;28;20438;-69
2021/01/22 03:20:41;;;;;;;1.17;1.00;;;;;;;7.82;88.29;98227.38;5011992;28;20033;-69
2021/01/22 03:23:07;;;;;;;1.07;0.90;;;;;;;7.89;87.67;98226.13;4993786;28;20038;-69
2021/01/22 03:25:34;;;;;;;1.67;0.93;;;;;;;7.81;88.41;98218.63;4991734;28;20053;-69
2021/01/22 03:28:01;;;;;;;2.23;1.30;;;;;;;7.73;88.46;98219.91;5007190;28;20038;-70
2021/01/22 03:30:27;;;;;;;1.47;0.80;;;;;;;7.77;87.87;98214.44;5007456;28;20510;-69
2021/01/22 03:32:54;;;;;;;1.07;0.80;;;;;;;7.87;86.76;98218.34;5010099;28;20046;-69
2021/01/22 03:35:20;;;;;;;1.33;0.70;;;;;;;8.04;85.81;98214.03;4998444;28;20517;-69
2021/01/22 03:37:46;;;;;;;0.80;0.70;;;;;;;8.10;85.09;98206.69;5015439;28;20092;-70
2021/01/22 03:40:13;;;;;;;1.20;0.90;;;;;;;8.06;84.88;98215.66;5006175;28;20041;-69
2021/01/22 03:42:39;;;;;;;1.17;1.03;;;;;;;8.11;84.73;98207.53;4980420;28;20045;-70
2021/01/22 03:45:06;;;;;;;1.07;0.70;;;;;;;8.28;82.96;98215.44;4970443;28;20673;-69
2021/01/22 03:47:32;;;;;;;1.00;0.83;;;;;;;8.25;82.82;98204.25;4985227;28;20124;-69
2021/01/22 03:49:59;;;;;;;0.90;0.80;;;;;;;8.33;81.83;98207.34;5009948;28;20041;-68
2021/01/22 03:52:27;;;;;;;1.83;0.80;;;;;;;8.32;81.70;98203.81;5005494;28;20037;-70
2021/01/22 03:54:53;;;;;;;1.00;0.70;;;;;;;8.39;81.32;98193.88;5007384;28;20050;-69
2021/01/22 03:57:19;;;;;;;1.37;0.73;;;;;;;8.34;81.36;98198.50;5009551;28;20442;-69
2021/01/22 03:59:46;;;;;;;0.98;0.80;;;;;;;8.45;79.77;98194.44;5006366;28;20038;-70
2021/01/22 04:02:12;;;;;;;1.27;1.07;;;;;;;8.51;79.39;98195.06;5006237;28;20438;-69
2021/01/22 04:04:38;;;;;;;0.97;0.80;;;;;;;8.53;79.52;98191.41;4990219;28;20091;-69
2021/01/22 04:07:05;;;;;;;0.97;0.87;;;;;;;8.39;79.68;98192.09;4988723;28;20403;-69
2021/01/22 04:09:31;;;;;;;0.93;0.70;;;;;;;8.41;79.11;98182.38;4989459;28;20442;-69
2021/01/22 04:11:57;;;;;;;1.30;0.70;;;;;;;8.41;78.97;98184.16;5004207;28;20518;-69
2021/01/22 04:14:24;;;;;;;2.50;0.75;;;;;;;8.34;79.31;98177.47;4997176;28;20042;-70
2021/01/22 04:16:55;;;;;;;0.87;0.70;;;;;;;8.49;78.16;98176.69;5005557;28;20120;-68
2021/01/22 04:19:22;;;;;;;1.20;0.73;;;;;;;8.46;78.22;98166.34;4969050;28;20066;-69
2021/01/22 04:21:48;;;;;;;1.27;0.80;;;;;;;8.47;77.47;98162.75;4987928;28;20035;-70
2021/01/22 04:24:14;;;;;;;2.50;0.80;;;;;;;8.48;77.65;98174.13;5006702;28;20065;-69
2021/01/22 04:26:41;;;;;;;1.63;0.82;;;;;;;8.43;77.68;98174.41;4989389;28;20037;-69
2021/01/22 04:29:08;;;;;;;1.13;0.70;;;;;;;8.42;77.35;98168.28;4988547;28;20038;-69
2021/01/22 04:31:34;;;;;;;1.90;0.87;;;;;;;8.46;76.83;98166.34;4991585;28;20038;-69
2021/01/22 04:34:01;;;;;;;1.73;0.90;;;;;;;8.44;76.75;98152.41;4990996;28;20056;-68
2021/01/22 04:36:27;;;;;;;0.80;0.70;;;;;;;8.46;76.03;98147.91;5006704;28;20080;-68
2021/01/22 04:38:53;;;;;;;0.77;0.60;;;;;;;8.52;76.05;98152.88;4973326;28;20056;-69
2021/01/22 04:41:19;;;;;;;1.27;0.70;;;;;;;8.50;76.00;98146.84;5005912;28;20042;-69
2021/01/22 04:43:45;;;;;;;1.70;0.70;;;;;;;8.51;75.55;98134.53;5006397;28;20045;-69
2021/01/22 04:46:12;;;;;;;1.67;1.00;;;;;;;8.55;75.31;98112.38;4989598;28;20045;-69
2021/01/22 04:48:38;;;;;;;1.57;1.20;;;;;;;8.52;75.09;98126.56;4988828;28;20530;-69
2021/01/22 04:51:05;;;;;;;4.93;3.00;;;;;;;8.56;74.95;98124.59;4989817;28;20038;-69
2021/01/22 04:53:34;;;;;;;3.53;2.47;;;;;;;8.55;74.40;98123.75;5005059;28;20069;-68
2021/01/22 04:56:01;;;;;;;1.20;0.83;;;;;;;8.59;74.08;98106.88;4989875;28;20057;-69
2021/01/22 04:58:41;;;;;;;1.10;0.73;;;;;;;8.59;73.72;98108.66;5007900;28;20537;-68
2021/01/22 05:01:08;;;;;;;0.93;0.70;;;;;;;8.70;73.25;98107.16;4989896;28;20049;-69
2021/01/22 05:03:34;;;;;;;1.10;0.70;;;;;;;8.74;72.68;98102.56;4985618;28;20046;-69
2021/01/22 05:06:01;;;;;;;0.82;0.70;;;;;;;8.66;72.70;98092.47;4983496;28;20048;-69
2021/01/22 05:08:27;;;;;;;1.20;0.87;;;;;;;8.73;72.53;98091.19;4988505;28;20045;-69
2021/01/22 05:10:53;;;;;;;1.20;0.93;;;;;;;8.84;71.51;98095.03;4995383;28;20135;-69
2021/01/22 05:13:20;;;;;;;1.33;0.90;;;;;;;8.76;71.97;98100.72;4989284;28;20038;-69
2021/01/22 05:16:11;;;;;;;1.07;0.90;;;;;;;8.69;72.49;98089.66;4989395;28;20125;-69
2021/01/22 05:18:38;;;;;;;2.65;1.20;;;;;;;8.64;72.37;98082.94;5003373;28;20033;-69
2021/01/22 05:21:07;;;;;;;1.47;0.83;;;;;;;8.64;72.27;98082.94;4988078;28;20084;-69
2021/01/22 05:23:34;;;;;;;1.58;0.93;;;;;;;8.59;72.82;98071.81;4997544;28;20296;-70
2021/01/22 05:26:05;;;;;;;1.50;0.90;;;;;;;8.54;72.66;98079.09;4989870;28;20052;-70
2021/01/22 05:28:45;;;;;;;0.93;0.80;;;;;;;8.60;72.32;98078.78;5005056;28;20038;-69
2021/01/22 05:31:13;;;;;;;0.70;0.70;;;;;;;8.60;71.76;98068.25;5005809;28;20038;-71
2021/01/22 05:33:41;;;;;;;1.17;0.80;;;;;;;8.54;72.23;98073.84;4991015;28;20046;-71
2021/01/22 05:36:26;;;;;;;1.40;0.70;;;;;;;8.48;72.71;98053.09;4976214;28;20034;-70
2021/01/22 05:38:53;;;;;;;0.90;0.50;;;;;;;8.57;71.84;98063.13;4989167;28;20049;-69
2021/01/22 05:41:20;;;;;;;0.77;0.73;;;;;;;8.45;72.45;98065.50;5014611;28;20049;-70
2021/01/22 05:43:46;;;;;;;1.33;1.00;;;;;;;8.49;72.36;98060.91;5007222;28;20041;-69
2021/01/22 05:46:14;;;;;;;2.22;0.93;;;;;;;8.44;72.60;98060.31;4993370;28;20053;-69
2021/01/22 05:48:41;;;;;;;1.65;0.80;;;;;;;8.39;72.73;98063.19;5010381;28;20099;-70
2021/01/22 05:51:08;;;;;;;1.33;1.00;;;;;;;8.46;72.69;98046.16;4999708;28;20030;-70
2021/01/22 05:53:44;;;;;;;3.17;1.10;;;;;;;8.50;72.07;98051.25;5009871;28;20073;-69
2021/01/22 05:56:18;;;;;;;1.10;1.00;;;;;;;8.49;72.06;98052.16;5010471;28;20037;-69
2021/01/22 05:58:46;;;;;;;1.05;0.82;;;;;;;8.41;72.00;98061.34;4998112;28;20101;-69
2021/01/22 06:01:13;;;;;;;10.10;1.27;;;;;;;8.44;72.20;98060.31;4978589;28;20045;-69
2021/01/22 06:03:41;;;;;;;1.27;1.10;;;;;;;8.41;72.32;98044.72;5011382;28;20077;-70
2021/01/22 06:06:09;;;;;;;2.73;1.80;;;;;;;8.33;72.57;98060.03;5009618;28;20499;-69
2021/01/22 06:08:56;;;;;;;1.63;0.90;;;;;;;8.36;72.80;98058.09;4992284;28;20066;-70
2021/01/22 06:11:24;;;;;;;0.83;0.70;;;;;;;8.40;71.97;98059.63;4999605;28;20038;-70
2021/01/22 06:13:51;;;;;;;1.35;0.93;;;;;;;8.39;72.00;98051.81;4991946;28;20080;-69
2021/01/22 06:16:19;;;;;;;1.87;0.87;;;;;;;8.35;72.23;98045.88;5010001;28;20526;-69
2021/01/22 06:18:55;;;;;;;1.93;0.90;;;;;;;8.32;72.64;98038.09;4992066;28;20084;-70
2021/01/22 06:21:28;;;;;;;1.60;0.90;;;;;;;8.36;72.30;98052.00;4992164;28;20046;-69
2021/01/22 06:23:57;;;;;;;1.53;0.90;;;;;;;8.48;71.72;98037.31;4976169;28;20053;-69
2021/01/22 06:26:23;;;;;;;3.03;1.10;;;;;;;8.46;71.90;98045.28;5010887;28;20081;-70
2021/01/22 06:28:50;;;;;;;2.50;1.00;;;;;;;8.47;72.10;98025.94;4981126;28;20057;-69
2021/01/22 06:31:19;;;;;;;1.60;1.17;;;;;;;8.44;72.36;98039.28;4991418;28;20132;-69
2021/01/22 06:33:47;;;;;;;1.20;0.77;;;;;;;8.62;71.17;98040.06;4992204;28;20042;-69
2021/01/22 06:36:14;;;;;;;1.10;0.77;;;;;;;8.66;71.20;98046.84;5008525;28;20045;-69
2021/01/22 06:38:41;;;;;;;1.27;0.80;;;;;;;8.58;71.65;98041.19;4989327;28;20081;-68
2021/01/22 06:41:08;;;;;;;1.20;0.93;;;;;;;8.59;71.50;98037.59;5005456;28;20631;-68
2021/01/22 06:43:36;;;;;;;1.00;0.90;;;;;;;8.64;71.02;98035.56;4991211;28;20529;-70
2021/01/22 06:46:11;;;;;;;0.80;0.73;;;;;;;8.62;70.98;98045.31;5007459;28;20030;-70
2021/01/22 06:48:53;;;;;;;1.23;0.70;;;;;;;8.58;71.40;98047.28;4975464;28;20148;-69
2021/01/22 06:51:20;;;;;;;1.40;0.80;;;;;;;8.72;70.41;98036.84;5005392;28;20042;-69
2021/01/22 06:54:11;;;;;;;1.23;0.93;;;;;;;8.70;70.54;98049.25;4988720;28;20038;-70
2021/01/22 06:57:03;;;;;;;0.83;0.70;;;;;;;8.73;70.90;98048.22;5007209;28;20041;-69
2021/01/22 06:59:34;;;;;;;1.30;0.90;;;;;;;8.81;70.80;98045.16;5007909;28;20050;-69
2021/01/22 07:02:01;;;;;;;1.93;1.20;;;;;;;8.73;71.05;98043.78;4992086;28;20037;-70
2021/01/22 07:04:30;;;;;;;1.55;1.45;;;;;;;8.87;70.26;98043.03;4975221;28;20175;-69
2021/01/22 07:06:57;;;;;;;1.23;0.90;;;;;;;8.92;70.52;98041.03;5008789;28;20659;-69
2021/01/22 07:09:50;;;;;;;1.20;1.10;;;;;;;8.89;70.55;98059.59;4984986;28;20031;-70
2021/01/22 07:12:38;;;;;;;1.45;1.05;;;;;;;8.91;70.50;98047.22;4999563;28;20061;-69
2021/01/22 07:15:19;;;;;;;2.47;0.70;;;;;;;8.94;70.41;98047.03;5008725;28;20046;-70
2021/01/22 07:17:48;;;;;;;1.08;0.70;;;;;;;8.96;70.50;98054.84;4998463;28;20096;-69
2021/01/22 07:20:14;;;;;;;1.98;0.75;;;;;;;8.91;70.76;98055.13;5007887;28;20111;-70
2021/01/22 07:22:54;;;;;;;1.33;0.90;;;;;;;9.01;70.47;98042.28;4984543;28;20106;-69
2021/01/22 07:25:32;;;;;;;2.05;0.88;;;;;;;9.05;70.23;98048.22;4966100;28;20034;-69
2021/01/22 07:28:04;;;;;;;1.27;1.00;;;;;;;9.09;70.00;98058.53;4978672;28;20046;-69
2021/01/22 07:30:37;;;;;;;2.13;1.00;;;;;;;9.10;71.08;98048.81;5001898;28;20496;-69
2021/01/22 07:33:25;;;;;;;1.63;0.83;;;;;;;9.21;69.66;98046.44;4983389;28;20037;-69
2021/01/22 07:36:11;;;;;;;0.90;0.80;;;;;;;9.26;70.27;98050.50;5007359;28;20709;-69
2021/01/22 07:38:39;;;;;;;1.88;0.80;;;;;;;9.24;69.97;98059.41;4970920;28;20050;-68
2021/01/22 07:41:06;;;;;;;1.25;0.75;;;;;;;9.29;69.71;98070.56;4985501;28;20150;-68
2021/01/22 07:43:32;;;;;;;1.50;0.85;;;;;;;9.35;69.60;98057.03;4976898;28;20041;-68
2021/01/22 07:46:09;;;;;;;2.00;0.98;;;;;;;9.34;69.24;98060.63;5008503;23;20125;-88
2021/01/22 07:48:37;;;;;;;1.50;0.90;;;;;;;9.36;69.42;98065.78;4964171;28;20066;-90
2021/01/22 07:51:32;;;;;;;1.40;1.10;;;;;;;9.39;69.34;98079.63;4958142;28;20202;-90
2021/01/22 07:54:00;;;;;;;1.52;1.10;;;;;;;9.39;69.86;98087.53;4942545;28;20046;-90
2021/01/22 07:56:40;;;;;;;1.02;0.77;;;;;;;9.47;69.25;98092.38;4969003;28;20078;-89
2021/01/22 07:59:11;;;;;;;1.40;0.65;;;;;;;9.43;69.71;98077.69;4956443;28;20042;-88
2021/01/22 08:01:38;;;;;;;2.95;1.48;;;;;;;9.37;69.96;98078.03;4953208;28;20120;-88
2021/01/22 08:04:05;;;;;;;1.33;0.85;;;;;;;9.37;70.20;98084.16;4952755;28;20065;-88
2021/01/22 08:06:50;;;;;;;1.15;0.90;;;;;;;9.41;70.18;98087.44;4973799;28;20046;-88
2021/01/22 08:09:17;;;;;;;1.80;1.00;;;;;;;9.45;70.12;98091.63;4970555;28;20131;-88
2021/01/22 08:11:52;;;;;;;1.35;0.95;;;;;;;9.36;70.36;98093.00;4957476;28;20034;-89
2021/01/22 08:14:31;;;;;;;1.20;1.00;;;;;;;9.35;70.81;98098.34;4971777;28;20046;-89
2021/01/22 08:17:12;;;;;;;1.02;0.85;;;;;;;9.33;71.13;98106.31;4960990;28;20042;-88
2021/01/22 08:19:43;;;;;;;1.42;0.90;;;;;;;9.34;70.77;98112.47;4941633;28;20050;-89
2021/01/22 08:22:14;;;;;;;2.03;1.00;;;;;;;9.35;70.91;98115.00;4964060;28;20048;-88
2021/01/22 08:24:48;;;;;;;1.98;1.00;;;;;;;9.29;71.60;98112.72;4957596;28;20050;-88
2021/01/22 08:27:20;;;;;;;1.75;1.30;;;;;;;9.32;71.56;98133.59;4951092;28;20068;-88
2021/01/22 08:29:51;;;;;;;2.42;1.05;;;;;;;9.27;72.08;98140.94;4975695;28;20049;-89
2021/01/22 08:32:18;;;;;;;1.48;1.00;;;;;;;9.26;75.14;98155.91;4971873;28;20084;-89
2021/01/22 08:34:48;;;;;;;2.50;1.17;;;;;;;9.13;76.09;98164.53;4975356;28;20042;-89
2021/01/22 08:37:15;;;;;;;1.73;1.40;;;;;;;8.95;77.92;98169.03;4974690;28;20052;-88
2021/01/22 08:39:58;;;;;;;2.15;1.30;;;;;;;8.78;79.59;98190.97;4974755;28;20052;-88
2021/01/22 08:42:29;;;;;;;2.92;1.50;;;;;;;8.63;82.73;98226.00;4961647;28;20046;-89
2021/01/22 08:45:02;;;;;;;1.88;1.20;;;;;;;8.33;87.77;98250.28;4987970;28;20077;-89
2021/01/22 08:47:31;;;;;;;3.30;1.70;;;;;;;8.01;89.28;98257.09;4969664;28;20407;-89
2021/01/22 08:49:59;;;;;;;2.17;1.70;;;;;;;7.66;91.99;98269.31;4987874;28;20050;-89
2021/01/22 08:52:27;;;;;;;2.37;0.97;;;;;;;7.41;90.74;98266.13;4974842;28;20235;-90
2021/01/22 08:54:58;;;;;;;2.27;1.10;;;;;;;7.27;90.26;98287.75;4974052;28;20041;-89
2021/01/22 08:57:27;;;;;;;2.97;1.80;;;;;;;7.17;92.88;98275.94;4959224;28;20034;-89
2021/01/22 08:59:58;;;;;;;2.37;1.67;;;;;;;7.10;90.91;98293.75;4968679;28;20041;-89
2021/01/22 09:02:38;;;;;;;3.10;1.60;;;;;;;7.01;90.52;98315.16;4958479;28;20558;-88
2021/01/22 09:05:10;;;;;;;3.30;1.93;;;;;;;6.96;91.21;98310.09;4969276;28;20038;-88
2021/01/22 09:07:38;;;;;;;2.13;1.40;;;;;;;6.93;91.56;98307.59;4960110;28;20498;-89
2021/01/22 09:10:06;;;;;;;2.57;1.70;;;;;;;6.94;90.90;98322.44;4980002;28;20495;-88
2021/01/22 09:12:33;;;;;;;3.83;2.03;;;;;;;7.03;89.60;98311.53;4970425;28;20034;-91
2021/01/22 09:15:07;;;;;;;4.17;2.43;;;;;;;7.25;88.64;98305.34;4973443;28;20063;-89
2021/01/22 09:17:45;;;;;;;6.13;2.27;;;;;;;7.37;87.56;98319.69;4970693;28;20042;-92
2021/01/22 09:20:22;;;;;;;3.30;1.53;;;;;;;7.49;86.82;98319.16;4947602;28;20076;-91
2021/01/22 09:22:50;;;;;;;1.63;0.90;;;;;;;7.60;85.20;98328.25;4964880;28;20099;-88
2021/01/22 09:25:18;;;;;;;3.27;1.20;;;;;;;7.71;85.25;98329.53;4978102;28;20069;-88
2021/01/22 09:27:48;;;;;;;1.87;1.27;;;;;;;7.90;83.50;98328.63;4961730;28;20042;-89
2021/01/22 09:30:19;;;;;;;2.17;1.60;;;;;;;7.92;81.74;98332.94;4964298;28;20077;-89
2021/01/22 09:32:47;;;;;;;4.67;2.60;;;;;;;7.93;80.33;98340.75;4980938;28;20495;-89
2021/01/22 09:35:15;;;;;;;6.10;3.03;;;;;;;7.96;80.48;98351.13;4963573;28;20291;-89
2021/01/22 09:37:41;;;;;;;4.10;1.83;;;;;;;7.95;79.40;98353.81;4954620;28;20050;-89
2021/01/22 09:40:09;;;;;;;3.83;2.07;;;;;;;7.86;79.01;98353.31;4974118;28;20218;-88
2021/01/22 09:42:36;;;;;;;3.30;1.27;;;;;;;7.83;80.11;98376.28;4979286;28;20421;-89
2021/01/22 09:45:04;;;;;;;3.10;1.50;;;;;;;7.70;80.40;98378.59;4959038;28;20410;-89
2021/01/22 09:47:31;;;;;;;2.67;1.40;;;;;;;7.60;81.01;98380.81;4965507;28;20069;-89
2021/01/22 09:49:58;;;;;;;4.93;1.83;;;;;;;7.68;81.68;98388.34;4956412;28;20054;-88
2021/01/22 09:52:24;;;;;;;4.30;1.93;;;;;;;7.79;82.69;98382.59;4977692;28;20037;-88
2021/01/22 09:54:51;;;;;;;2.47;1.40;;;;;;;7.71;80.85;98382.09;4975970;28;20046;-89
2021/01/22 09:57:17;;;;;;;3.37;1.77;;;;;;;7.58;81.66;98390.53;4972863;28;20538;-89
2021/01/22 09:59:43;;;;;;;1.23;0.70;;;;;;;7.46;81.18;98393.69;4990710;28;20061;-89
2021/01/22 10:02:10;;;;;;;1.60;0.90;;;;;;;7.41;82.40;98413.22;4948407;28;20042;-88
2021/01/22 10:04:36;;;;;;;3.30;1.50;;;;;;;7.34;82.63;98410.84;4972405;28;20185;-89
2021/01/22 10:07:04;;;;;;;0.70;0.70;;;;;;;7.33;82.04;98403.03;4955514;28;20064;-88
2021/01/22 10:09:31;;;;;;;0.70;0.50;;;;;;;7.32;81.99;98402.19;4997744;28;20048;-88
2021/01/22 10:11:58;;;;;;;0.83;0.73;;;;;;;7.37;82.13;98404.59;4968976;28;20487;-88
2021/01/22 10:14:25;;;;;;;2.13;1.47;;;;;;;7.53;80.71;98405.63;4982123;28;20388;-88
2021/01/22 10:16:51;;;;;;;3.73;2.30;;;;;;;7.86;79.61;98405.91;4975545;28;20052;-89
2021/01/22 10:19:18;;;;;;;1.97;1.10;;;;;;;7.87;77.81;98425.16;4991537;28;20499;-88
2021/01/22 10:21:45;;;;;;;2.50;1.73;;;;;;;7.82;76.24;98433.28;4952504;28;20170;-88
2021/01/22 10:24:11;;;;;;;2.60;1.40;;;;;;;8.00;75.16;98428.09;4972282;28;20128;-91
2021/01/22 10:26:38;;;;;;;1.60;1.07;;;;;;;7.78;75.14;98421.16;4984485;28;20042;-91
2021/01/22 10:29:04;;;;;;;2.23;1.27;;;;;;;7.72;75.15;98426.69;4966001;28;20046;-91
2021/01/22 10:31:30;;;;;;;0.60;0.47;;;;;;;7.48;71.85;98430.41;4973266;28;20061;-89
2021/01/22 10:33:57;;;;;;;1.47;0.80;;;;;;;7.36;72.29;98438.81;4970536;28;20062;-89
2021/01/22 10:36:24;;;;;;;1.57;1.00;;;;;;;7.22;72.92;98431.53;4964161;28;20584;-89
2021/01/22 10:38:50;;;;;;;2.83;1.10;;;;;;;7.19;73.26;98442.16;4960854;28;20053;-89
2021/01/22 10:41:16;;;;;;;1.47;0.77;;;;;;;7.06;72.28;98449.69;4967240;28;20050;-89
2021/01/22 10:43:42;;;;;;;4.47;1.93;;;;;;;7.00;73.50;98447.34;4971332;28;20489;-88
2021/01/22 10:46:11;;;;;;;2.40;1.20;;;;;;;7.00;73.96;98453.44;4972338;28;20389;-89
2021/01/22 10:48:38;;;;;;;5.93;2.83;;;;;;;7.01;73.85;98475.28;4971542;28;20041;-88
2021/01/22 10:51:06;;;;;;;3.63;1.70;;;;;;;7.04;74.19;98480.41;4949847;28;20065;-88
2021/01/22 10:53:33;;;;;;;7.63;3.50;;;;;;;7.07;73.58;98463.69;4990432;28;20491;-89
2021/01/22 10:55:59;;;;;;;1.63;0.90;;;;;;;7.19;74.00;98460.53;4986043;28;20030;-88
2021/01/22 10:58:27;;;;;;;0.47;0.43;;;;;;;7.18;73.56;98454.44;4970100;28;20100;-89
2021/01/22 11:00:54;;;;;;;0.33;0.33;;;;;;;7.18;73.32;98459.69;4990113;28;20039;-88
2021/01/22 11:03:20;;;;;;;0.40;0.40;;;;;;;7.07;74.51;98474.19;4962177;28;20053;-88
2021/01/22 11:05:47;;;;;;;0.37;0.30;;;;;;;6.97;74.59;98473.69;4972495;28;20050;-89
2021/01/22 11:08:13;;;;;;;2.40;1.37;;;;;;;6.92;75.24;98481.78;4957795;28;20040;-88
2021/01/22 11:10:39;;;;;;;1.90;0.50;;;;;;;6.62;73.59;98496.94;4961170;28;20073;-89
2021/01/22 11:13:05;;;;;;;2.53;1.00;;;;;;;6.65;74.46;98498.63;4957054;28;20331;-88
2021/01/22 11:15:34;;;;;;;1.80;0.90;;;;;;;6.66;75.67;98495.94;4960255;28;20137;-89
2021/01/22 11:18:01;;;;;;;1.77;1.10;;;;;;;6.64;75.16;98500.41;4972277;28;20053;-89
2021/01/22 11:20:28;;;;;;;0.87;0.67;;;;;;;6.67;75.64;98496.78;4964416;28;20541;-89
2021/01/22 11:22:54;;;;;;;1.17;0.50;;;;;;;6.64;75.90;98503.03;4960464;28;20042;-89
2021/01/22 11:25:21;;;;;;;0.40;0.40;;;;;;;6.49;75.14;98514.94;4956437;28;20061;-89
2021/01/22 11:27:48;;;;;;;0.60;0.60;;;;;;;6.35;73.99;98519.84;4956115;28;20422;-89
2021/01/22 11:30:15;;;;;;;1.00;0.90;;;;;;;6.39;75.31;98517.97;4959199;28;20486;-91
2021/01/22 11:32:42;;;;;;;2.10;1.10;;;;;;;6.35;74.24;98516.38;4962890;28;20046;-90
2021/01/22 11:35:10;;;;;;;3.40;1.30;;;;;;;6.41;74.72;98521.41;4963995;28;20565;-91
2021/01/22 11:37:37;;;;;;;0.93;0.70;;;;;;;6.40;74.87;98524.94;4978752;28;20045;-88
2021/01/22 11:40:05;;;;;;;1.83;0.90;;;;;;;6.45;74.71;98525.59;4979663;28;20165;-90
2021/01/22 11:42:31;;;;;;;0.97;0.60;;;;;;;6.52;75.10;98527.09;4969103;28;20077;-89
2021/01/22 11:44:58;;;;;;;0.50;0.43;;;;;;;6.55;75.03;98524.34;4953405;28;20046;-88
2021/01/22 11:47:24;;;;;;;0.60;0.60;;;;;;;6.53;75.52;98525.31;4973639;28;20133;-88